Time;durP1;ratioP1;P1;durP2;ratioP2;P2;SDS_P1;SDS_P2;PMS_P1;PMS_P2;Temp;Humidity;BMP_temperature;BMP_pressure;BME280_temperature;BME280_humidity;BME280_pressure;Samples;Min_cycle;Max_cycle;Signal;HPM_P1;HPM_P2
2023/02/02 00:02:05;;;;;;;5.90;3.30;;;;;;;1.33;100.00;99847.42;109216;1253;69680;-91
2023/02/02 00:04:54;;;;;;;10.40;4.00;;;;;;;1.34;100.00;99844.49;109210;1253;73618;-91
2023/02/02 00:07:43;;;;;;;6.00;3.00;;;;;;;1.34;100.00;99846.98;109257;1253;59586;-91
2023/02/02 00:10:33;;;;;;;9.10;3.80;;;;;;;1.30;100.00;99844.52;109189;1253;61279;-92
2023/02/02 00:13:22;;;;;;;7.90;3.10;;;;;;;1.30;100.00;99845.48;109206;1253;75836;-90
2023/02/02 00:16:26;;;;;;;6.40;3.20;;;;;;;1.33;100.00;99845.06;109303;1253;69709;-92
2023/02/02 00:19:17;;;;;;;9.30;3.70;;;;;;;1.33;100.00;99846.14;109241;1253;72461;-89
2023/02/02 00:22:06;;;;;;;10.20;3.50;;;;;;;1.31;100.00;99846.58;109087;1253;58364;-90
2023/02/02 00:24:55;;;;;;;7.10;3.10;;;;;;;1.33;100.00;99847.05;109294;1252;62141;-91
2023/02/02 00:27:44;;;;;;;8.90;3.50;;;;;;;1.36;100.00;99846.00;109190;1254;74414;-90
2023/02/02 00:30:34;;;;;;;8.30;3.20;;;;;;;1.33;100.00;99846.41;109305;1253;68751;-91
2023/02/02 00:33:23;;;;;;;8.30;3.40;;;;;;;1.34;100.00;99847.14;109195;1253;72361;-90
2023/02/02 00:36:12;;;;;;;5.10;2.90;;;;;;;1.38;100.00;99846.50;109046;1253;62431;-91
2023/02/02 00:39:01;;;;;;;9.90;3.40;;;;;;;1.45;100.00;99843.43;109410;1252;60275;-91
2023/02/02 00:41:50;;;;;;;9.00;2.90;;;;;;;1.58;100.00;99846.89;109340;1253;73784;-91
2023/02/02 00:47:48;;;;;;;6.50;2.90;;;;;;;1.64;100.00;99839.75;109301;1253;73493;-90
2023/02/02 00:50:37;;;;;;;5.10;2.70;;;;;;;1.63;100.00;99841.18;109259;1253;59751;-91
2023/02/02 00:53:26;;;;;;;4.70;2.70;;;;;;;1.68;100.00;99837.96;109211;1253;60027;-90
2023/02/02 00:56:15;;;;;;;5.20;2.70;;;;;;;1.73;100.00;99835.35;109284;1253;73862;-91
2023/02/02 00:59:04;;;;;;;7.00;2.90;;;;;;;1.76;100.00;99836.68;109158;1256;69436;-91
2023/02/02 01:01:53;;;;;;;7.30;3.20;;;;;;;1.76;100.00;99833.92;109162;1253;73640;-91
2023/02/02 05:51:18;;;;;;;9.40;3.20;;;;;;;1.55;100.00;99918.08;109367;1253;71393;-90
2023/02/02 05:54:07;;;;;;;8.10;3.10;;;;;;;1.52;100.00;99919.17;109146;1253;61601;-91
2023/02/02 05:56:59;;;;;;;4.70;2.90;;;;;;;1.55;100.00;99921.90;109328;1252;61024;-91
2023/02/02 05:59:49;;;;;;;10.20;2.90;;;;;;;1.56;100.00;99928.50;109103;1253;74714;-91
2023/02/02 06:02:38;;;;;;;6.20;3.10;;;;;;;1.61;100.00;99931.41;109174;1253;68975;-92
2023/02/02 06:05:28;;;;;;;11.40;3.70;;;;;;;1.66;100.00;99935.34;109283;1253;74298;-91
2023/02/02 06:08:17;;;;;;;9.70;2.70;;;;;;;1.71;100.00;99938.11;109270;1253;58315;-91
2023/02/02 06:11:11;;;;;;;8.50;3.40;;;;;;;1.72;100.00;99939.59;109443;1253;61546;-91
2023/02/02 06:14:00;;;;;;;6.80;3.50;;;;;;;1.76;100.00;99938.16;109152;1253;74140;-90
2023/02/02 06:16:49;;;;;;;7.90;3.20;;;;;;;1.78;100.00;99939.95;109269;1253;70714;-90
2023/02/02 06:19:37;;;;;;;9.50;3.40;;;;;;;1.80;100.00;99940.09;109104;1253;72984;-90
2023/02/02 06:22:26;;;;;;;7.80;3.10;;;;;;;1.76;100.00;99949.75;109169;1255;59308;-90
2023/02/02 06:25:15;;;;;;;10.00;3.40;;;;;;;1.79;100.00;99954.73;108872;1256;297529;-90
2023/02/02 06:28:04;;;;;;;9.00;2.70;;;;;;;1.84;100.00;99949.66;109148;1253;74438;-91
2023/02/02 06:30:52;;;;;;;8.10;2.90;;;;;;;1.81;100.00;99948.84;109258;1253;69008;-90
2023/02/02 06:33:41;;;;;;;8.00;3.30;;;;;;;1.78;100.00;99952.67;109357;1253;73831;-90
2023/02/02 06:36:30;;;;;;;5.70;2.50;;;;;;;1.81;100.00;99957.84;109147;1254;59206;-91
2023/02/02 06:39:19;;;;;;;7.50;3.00;;;;;;;1.83;100.00;99958.76;109270;1255;58975;-90
2023/02/02 06:42:08;;;;;;;6.40;2.80;;;;;;;1.84;100.00;99960.06;109276;1253;74888;-90
2023/02/02 06:45:09;;;;;;;7.60;2.70;;;;;;;1.86;100.00;99960.02;109388;1252;66674;-91
2023/02/02 06:48:02;;;;;;;6.00;3.00;;;;;;;1.92;100.00;99964.48;109111;1254;71612;-91
2023/02/02 06:50:52;;;;;;;9.60;3.00;;;;;;;1.91;100.00;99966.66;109162;1253;62156;-91
2023/02/02 06:53:41;;;;;;;5.00;2.30;;;;;;;1.89;100.00;99971.13;109126;1253;58952;-90
2023/02/02 06:56:30;;;;;;;7.50;2.80;;;;;;;1.88;100.00;99972.51;109315;1253;75093;-91
2023/02/02 06:59:19;;;;;;;6.90;2.90;;;;;;;1.98;100.00;99974.30;109170;1253;68348;-90
2023/02/02 07:02:10;;;;;;;8.40;3.50;;;;;;;2.05;100.00;99975.48;109282;1253;73797;-91
2023/02/02 07:04:58;;;;;;;12.70;3.90;;;;;;;2.04;100.00;99975.79;109146;1253;59099;-89
2023/02/02 07:07:47;;;;;;;8.90;3.20;;;;;;;2.05;100.00;99978.40;109319;1254;60377;-90
2023/02/02 07:10:37;;;;;;;6.40;3.60;;;;;;;2.07;100.00;99975.65;109206;1253;72657;-90
2023/02/02 07:13:48;;;;;;;7.40;3.30;;;;;;;2.17;100.00;99978.21;109389;1253;68654;-90
2023/02/02 07:16:38;;;;;;;8.60;2.80;;;;;;;2.25;100.00;99979.27;109359;1253;73496;-91
2023/02/02 07:19:27;;;;;;;7.90;3.30;;;;;;;2.33;100.00;99982.48;109272;1255;58211;-90
2023/02/02 07:22:17;;;;;;;10.20;3.00;;;;;;;2.45;100.00;99983.96;109382;1255;60317;-91
2023/02/02 07:25:07;;;;;;;10.70;3.40;;;;;;;2.51;100.00;99986.90;109162;1258;74559;-92
2023/02/02 07:27:55;;;;;;;8.60;2.90;;;;;;;2.62;100.00;99987.88;109207;1253;70129;-92
2023/02/02 07:30:44;;;;;;;6.10;2.70;;;;;;;2.67;100.00;99986.14;109301;1253;70363;-91
2023/02/02 07:33:37;;;;;;;6.60;3.10;;;;;;;2.66;100.00;99987.16;109340;1253;58391;-90
2023/02/02 07:36:26;;;;;;;;;;;;;;;2.70;100.00;99985.66;109317;1253;60618;-90
2023/02/02 07:39:14;;;;;;;7.70;3.40;;;;;;;2.77;100.00;99986.02;109342;1253;74735;-90
2023/02/02 07:42:04;;;;;;;10.10;3.10;;;;;;;2.87;100.00;99988.00;109350;1254;69611;-92
2023/02/02 07:44:55;;;;;;;7.10;3.20;;;;;;;2.95;100.00;99983.68;109256;1252;71276;-90
2023/02/02 07:47:46;;;;;;;8.60;3.70;;;;;;;3.04;100.00;99989.89;109333;1253;60272;-90
2023/02/02 07:50:35;;;;;;;4.30;2.30;;;;;;;3.09;100.00;99992.05;109330;1253;60686;-91
2023/02/02 07:53:24;;;;;;;11.70;3.00;;;;;;;3.14;100.00;99991.76;109148;1254;73796;-90
2023/02/02 07:56:19;;;;;;;9.20;3.10;;;;;;;3.20;100.00;99994.95;109385;1253;68404;-90
2023/02/02 07:59:08;;;;;;;8.30;3.90;;;;;;;3.31;100.00;100003.47;109348;1253;73066;-90
2023/02/02 08:01:57;;;;;;;7.10;3.00;;;;;;;3.35;100.00;100006.98;109090;1253;60156;-89
2023/02/02 08:04:46;;;;;;;6.40;3.20;;;;;;;3.36;100.00;100007.95;109213;1253;59653;-90
2023/02/02 08:07:35;;;;;;;9.50;2.90;;;;;;;3.42;100.00;100011.18;109319;1253;74096;-91
2023/02/02 08:10:24;;;;;;;5.90;3.00;;;;;;;3.50;100.00;100009.09;109301;1252;69606;-91
2023/02/02 08:13:14;;;;;;;6.20;2.70;;;;;;;3.57;100.00;100015.30;109332;1253;74048;-90
2023/02/02 08:16:03;;;;;;;6.70;3.10;;;;;;;3.63;100.00;100014.73;109278;1254;61641;-92
2023/02/02 08:18:52;;;;;;;11.20;3.40;;;;;;;3.63;100.00;100014.83;109385;1252;60438;-91
2023/02/02 08:21:41;;;;;;;4.40;2.70;;;;;;;3.61;100.00;100012.79;109174;1253;73872;-90
2023/02/02 08:24:30;;;;;;;7.10;3.60;;;;;;;3.58;100.00;100010.70;109292;1253;69022;-90
2023/02/02 08:27:19;;;;;;;6.20;2.80;;;;;;;3.58;100.00;100011.56;109358;1255;72074;-91
2023/02/02 08:30:09;;;;;;;5.80;2.80;;;;;;;3.67;100.00;100012.27;109105;1253;60225;-92
2023/02/02 08:32:58;;;;;;;5.70;2.70;;;;;;;3.82;100.00;100011.53;109199;1253;60503;-90
2023/02/02 08:35:47;;;;;;;6.80;3.20;;;;;;;3.89;100.00;100009.33;109216;1253;75015;-91
2023/02/02 08:38:38;;;;;;;3.80;2.60;;;;;;;3.94;100.00;100012.21;109107;1257;68130;-91
2023/02/02 08:41:27;;;;;;;9.50;2.70;;;;;;;4.01;100.00;100011.90;109048;1253;72681;-90
2023/02/02 08:44:16;;;;;;;5.60;2.90;;;;;;;4.21;100.00;100012.09;109082;1259;60162;-90
2023/02/02 08:47:07;;;;;;;5.10;3.00;;;;;;;4.28;100.00;100013.98;109144;1253;59521;-91
2023/02/02 08:49:56;;;;;;;7.70;3.10;;;;;;;4.40;100.00;100014.20;109272;1256;73457;-91
2023/02/02 08:52:45;;;;;;;3.70;2.50;;;;;;;4.49;100.00;100008.30;109107;1253;69977;-91
2023/02/02 08:55:35;;;;;;;5.50;3.50;;;;;;;4.62;100.00;100004.96;109270;1257;73583;-91
2023/02/02 08:58:25;;;;;;;5.10;2.80;;;;;;;4.78;100.00;100001.27;109030;1253;59659;-91
2023/02/02 09:01:28;;;;;;;7.30;3.10;;;;;;;4.94;100.00;99997.02;109240;1254;59066;-92
2023/02/02 09:04:17;;;;;;;9.20;3.80;;;;;;;5.03;100.00;99994.46;109294;1256;74745;-92
2023/02/02 09:07:06;;;;;;;5.50;3.00;;;;;;;5.03;100.00;99989.22;109324;1253;69480;-92
2023/02/02 09:09:56;;;;;;;5.80;2.70;;;;;;;5.01;100.00;99988.06;109223;1253;73307;-91
2023/02/02 09:12:45;;;;;;;7.70;3.50;;;;;;;5.10;100.00;99985.66;109227;1253;58821;-92
2023/02/02 09:15:35;;;;;;;6.90;3.30;;;;;;;5.08;100.00;99985.00;109235;1253;61362;-91
2023/02/02 09:18:24;;;;;;;3.30;2.40;;;;;;;5.07;100.00;99985.09;109219;1253;75353;-90
2023/02/02 09:21:14;;;;;;;4.50;3.20;;;;;;;5.06;100.00;99978.80;109362;1253;70841;-90
2023/02/02 09:24:08;;;;;;;7.30;3.60;;;;;;;5.13;100.00;99979.59;109291;1254;73006;-92
2023/02/02 09:26:57;;;;;;;5.10;3.00;;;;;;;5.12;100.00;99976.05;109251;1254;58595;-91
2023/02/02 09:29:47;;;;;;;8.60;3.20;;;;;;;5.14;100.00;99973.58;109301;1253;59426;-91
2023/02/02 09:32:37;;;;;;;5.10;3.10;;;;;;;5.21;100.00;99969.59;109133;1259;73251;-91
2023/02/02 09:35:25;;;;;;;5.40;3.40;;;;;;;5.29;100.00;99967.23;109394;1255;69012;-91
2023/02/02 09:38:15;;;;;;;4.40;3.00;;;;;;;5.27;100.00;99967.90;109363;1254;73661;-92
2023/02/02 09:41:24;;;;;;;7.30;3.30;;;;;;;5.19;100.00;99972.64;109371;1252;60649;-91
2023/02/02 09:44:45;;;;;;;5.50;3.30;;;;;;;5.13;100.00;99966.30;109257;1254;59468;-90
2023/02/02 09:48:03;;;;;;;8.70;3.90;;;;;;;5.11;100.00;99964.17;109278;1256;74403;-91
2023/02/02 09:50:58;;;;;;;6.70;3.70;;;;;;;5.07;100.00;99966.89;109240;1254;67993;-91
2023/02/02 09:53:59;;;;;;;4.90;3.00;;;;;;;5.10;100.00;99965.52;109266;1252;71555;-90
2023/02/02 09:56:50;;;;;;;5.90;3.50;;;;;;;5.13;100.00;99965.65;109128;1253;58856;-90
2023/02/02 09:59:39;;;;;;;5.40;3.30;;;;;;;5.05;100.00;99960.70;109266;1253;59317;-91
2023/02/02 10:46:31;;;;;;;6.00;2.20;;;;;;;4.22;100.00;99942.16;108401;1266;59880;-93
2023/02/02 10:49:22;;;;;;;6.70;2.30;;;;;;;4.29;100.00;99941.39;108133;1266;61539;-90
2023/02/02 10:52:16;;;;;;;3.30;1.90;;;;;;;4.28;100.00;99943.02;108309;1266;73243;-89
2023/02/02 10:55:31;;;;;;;2.90;1.90;;;;;;;4.28;100.00;99944.41;108385;1268;71114;-90
2023/02/02 10:58:27;;;;;;;2.30;1.40;;;;;;;4.38;100.00;99940.05;108435;1263;73285;-90
2023/02/02 11:01:16;;;;;;;1.80;1.20;;;;;;;4.45;100.00;99940.12;108640;1262;58381;-90
2023/02/02 11:07:19;;;;;;;2.00;1.40;;;;;;;4.43;100.00;99947.68;108525;1264;72460;-91
2023/02/02 11:10:08;;;;;;;2.50;1.70;;;;;;;4.41;100.00;99942.79;108742;1263;69867;-90
2023/02/02 11:12:58;;;;;;;2.60;2.10;;;;;;;4.39;100.00;99943.25;108726;1263;73868;-89
2023/02/02 11:15:49;;;;;;;3.40;1.60;;;;;;;4.40;100.00;99944.73;108890;1260;62950;-90
2023/02/02 11:18:38;;;;;;;3.60;2.10;;;;;;;4.42;100.00;99944.96;108876;1259;59906;-90
2023/02/02 11:21:30;;;;;;;4.70;2.10;;;;;;;4.44;100.00;99946.23;108856;1260;73958;-91
2023/02/02 11:24:29;;;;;;;3.30;1.60;;;;;;;4.45;100.00;99954.59;108737;1258;70881;-89
2023/02/02 11:27:30;;;;;;;4.20;2.50;;;;;;;4.47;100.00;99958.49;108878;1260;72406;-89
2023/02/02 11:30:33;;;;;;;3.50;2.30;;;;;;;4.42;100.00;99955.73;108984;1256;61440;-91
2023/02/02 11:33:29;;;;;;;6.00;1.90;;;;;;;4.32;100.00;99954.95;108978;1256;59359;-90
2023/02/02 11:36:20;;;;;;;2.30;1.90;;;;;;;4.24;100.00;99952.36;109109;1256;72163;-90
2023/02/02 11:39:18;;;;;;;6.40;2.40;;;;;;;4.19;100.00;99957.15;109040;1258;69260;-89
2023/02/02 11:42:15;;;;;;;3.80;2.50;;;;;;;4.13;100.00;99962.14;108925;1259;73231;-90
2023/02/02 11:45:17;;;;;;;5.90;3.20;;;;;;;4.12;100.00;99964.37;108989;1257;59520;-91
2023/02/02 11:48:15;;;;;;;4.30;2.50;;;;;;;4.13;100.00;99965.29;108988;1256;61346;-91
2023/02/02 11:51:04;;;;;;;5.80;3.10;;;;;;;4.17;100.00;99969.98;109220;1256;73371;-91
2023/02/02 11:54:12;;;;;;;4.60;3.10;;;;;;;4.19;100.00;99968.41;109227;1257;67253;-89
2023/02/02 11:57:06;;;;;;;4.90;3.40;;;;;;;4.17;100.00;99965.56;109188;1255;70857;-89
2023/02/02 12:00:25;;;;;;;8.80;4.40;;;;;;;4.12;100.00;99969.23;108993;1256;59011;-89
2023/02/02 12:03:33;;;;;;;6.30;3.90;;;;;;;4.10;100.00;99971.58;109210;1256;60460;-91
2023/02/02 12:06:23;;;;;;;6.90;3.60;;;;;;;4.04;100.00;99974.73;109039;1260;72716;-90
2023/02/02 12:09:14;;;;;;;7.40;4.50;;;;;;;4.00;100.00;99977.37;108995;1256;68872;-89
2023/02/02 12:12:14;;;;;;;6.70;3.80;;;;;;;3.96;100.00;99973.59;109210;1257;73997;-90
2023/02/02 12:15:30;;;;;;;6.50;3.40;;;;;;;4.05;100.00;99976.81;109013;1257;60038;-91
2023/02/02 12:18:46;;;;;;;11.50;4.40;;;;;;;4.18;100.00;99972.14;108979;1257;59551;-90
2023/02/02 12:21:38;;;;;;;10.00;4.90;;;;;;;4.35;100.00;99973.32;109011;1257;72618;-91
2023/02/02 12:24:37;;;;;;;12.20;5.60;;;;;;;4.31;100.00;99976.96;108987;1259;69682;-90
2023/02/02 12:27:32;;;;;;;8.50;5.40;;;;;;;4.23;100.00;99984.54;108976;1256;70810;-89
2023/02/02 12:30:34;;;;;;;10.30;5.80;;;;;;;4.14;100.00;99991.69;109166;1257;57655;-91
2023/02/02 12:33:45;;;;;;;7.90;5.30;;;;;;;4.03;100.00;99991.80;109172;1257;61016;-91
2023/02/02 12:36:59;;;;;;;11.00;5.60;;;;;;;3.87;100.00;100000.64;108979;1257;73967;-90
2023/02/02 12:40:21;;;;;;;10.70;5.60;;;;;;;3.74;100.00;100003.44;109197;1256;66719;-91
2023/02/02 12:43:37;;;;;;;8.50;4.80;;;;;;;3.62;100.00;100009.24;109188;1256;72951;-90
2023/02/02 12:46:36;;;;;;;7.70;5.10;;;;;;;3.52;100.00;100006.27;108908;1257;57725;-90
2023/02/02 12:50:02;;;;;;;7.40;4.30;;;;;;;3.41;100.00;100010.84;108921;1256;59447;-91
2023/02/02 12:53:15;;;;;;;7.20;4.20;;;;;;;3.32;100.00;100016.17;109160;1257;72807;-91
2023/02/02 12:56:13;;;;;;;7.50;4.00;;;;;;;3.29;100.00;100015.98;109017;1257;70115;-91
2023/02/02 12:59:27;;;;;;;5.30;4.10;;;;;;;3.25;100.00;100020.10;109129;1257;70993;-89
2023/02/02 13:02:22;;;;;;;6.50;3.70;;;;;;;3.21;100.00;100016.35;109118;1257;60517;-90
2023/02/02 13:05:22;;;;;;;6.10;4.10;;;;;;;3.16;100.00;100019.77;109162;1257;60099;-89
2023/02/02 13:08:15;;;;;;;7.50;4.70;;;;;;;3.13;100.00;100019.10;108992;1257;74539;-90
2023/02/02 13:11:28;;;;;;;7.70;4.80;;;;;;;3.06;100.00;100020.34;108989;1255;67167;-90
2023/02/02 13:14:24;;;;;;;7.90;4.50;;;;;;;3.06;100.00;100021.20;108972;1256;73919;-91
2023/02/02 13:17:14;;;;;;;5.30;3.60;;;;;;;3.06;100.00;100023.95;109210;1255;58699;-90
2023/02/02 13:20:20;;;;;;;6.50;3.90;;;;;;;3.02;100.00;100028.09;108974;1257;59328;-90
2023/02/02 13:23:12;;;;;;;7.50;4.10;;;;;;;2.96;100.00;100027.22;108955;1257;74226;-90
2023/02/02 13:26:23;;;;;;;8.50;4.50;;;;;;;2.95;100.00;100031.73;109251;1259;69621;-90
2023/02/02 13:29:45;;;;;;;7.90;4.30;;;;;;;2.92;100.00;100035.61;108931;1257;73912;-91
2023/02/02 13:32:38;;;;;;;6.80;4.60;;;;;;;2.87;100.00;100032.98;109046;1257;60232;-90
2023/02/02 13:35:33;;;;;;;9.00;4.40;;;;;;;2.83;100.00;100034.30;108941;1256;61145;-90
2023/02/02 13:38:29;;;;;;;6.60;3.70;;;;;;;2.79;100.00;100040.90;109005;1258;72208;-91
2023/02/02 13:41:18;;;;;;;6.70;4.30;;;;;;;2.80;100.00;100044.11;109009;1257;69202;-90
2023/02/02 13:44:16;;;;;;;7.30;4.10;;;;;;;2.79;100.00;100041.39;109035;1256;71662;-89
2023/02/02 13:47:11;;;;;;;8.50;4.80;;;;;;;2.71;100.00;100033.55;109007;1255;59606;-90
2023/02/02 13:50:10;;;;;;;7.80;4.10;;;;;;;2.69;100.00;100032.21;109070;1258;59499;-91
2023/02/02 13:53:24;;;;;;;6.70;3.80;;;;;;;2.73;100.00;100037.98;109030;1254;72779;-90
2023/02/02 13:56:32;;;;;;;;;;;;;;;2.77;100.00;100032.56;108947;1255;69689;-90
2023/02/02 14:00:18;;;;;;;7.90;4.30;;;;;;;2.76;100.00;100033.82;109249;1254;72649;-90
2023/02/02 14:03:39;;;;;;;9.10;4.40;;;;;;;2.71;100.00;100033.98;108612;1263;60114;-92
2023/02/02 14:06:29;;;;;;;7.10;4.00;;;;;;;2.70;100.00;100042.33;108619;1263;60879;-90
2023/02/02 14:09:18;;;;;;;6.60;4.50;;;;;;;2.71;100.00;100046.66;109001;1260;71581;-92
2023/02/02 14:12:08;;;;;;;7.90;4.80;;;;;;;2.70;100.00;100047.23;109357;1252;66388;-90
2023/02/02 14:14:57;;;;;;;8.50;5.00;;;;;;;2.67;100.00;100050.30;109273;1254;73491;-90
2023/02/02 14:17:46;;;;;;;10.40;6.00;;;;;;;2.66;100.00;100052.48;109373;1254;58912;-89
2023/02/02 14:20:43;;;;;;;11.50;5.80;;;;;;;2.66;100.00;100055.19;109146;1256;58319;-91
2023/02/02 14:23:50;;;;;;;9.60;6.00;;;;;;;2.64;100.00;100059.20;109164;1252;72604;-91
2023/02/02 14:26:40;;;;;;;12.10;5.90;;;;;;;2.57;100.00;100057.33;109392;1254;66636;-89
2023/02/02 14:29:30;;;;;;;9.50;5.70;;;;;;;2.56;100.00;100064.95;109394;1252;72675;-91
2023/02/02 14:32:27;;;;;;;13.20;5.90;;;;;;;2.56;100.00;100069.17;109347;1253;59924;-91
2023/02/02 14:35:24;;;;;;;11.50;5.70;;;;;;;2.54;100.00;100063.34;109373;1252;59216;-91
2023/02/02 14:38:22;;;;;;;13.20;6.60;;;;;;;2.52;100.00;100060.34;109379;1253;73122;-90
2023/02/02 14:45:38;;;;;;;12.30;6.30;;;;;;;2.45;100.00;100059.48;109295;1254;73904;-91
2023/02/02 14:48:28;;;;;;;12.20;5.90;;;;;;;2.40;100.00;100063.85;108783;1262;59583;-91
2023/02/02 14:51:21;;;;;;;11.50;6.10;;;;;;;2.36;100.00;100068.30;108720;1260;59077;-91
2023/02/02 14:54:36;;;;;;;12.40;6.60;;;;;;;2.35;100.00;100069.65;109223;1254;71266;-90
2023/02/02 14:57:26;;;;;;;9.50;5.70;;;;;;;2.29;100.00;100071.29;109352;1251;69983;-90
2023/02/02 15:00:20;;;;;;;14.00;6.30;;;;;;;2.22;100.00;100071.78;109221;1252;70858;-90
2023/02/02 15:03:44;;;;;;;14.40;6.60;;;;;;;2.11;100.00;100070.67;109206;1251;59899;-90
2023/02/02 15:06:39;;;;;;;13.90;6.40;;;;;;;1.90;100.00;100071.50;109443;1254;61227;-90
2023/02/02 15:09:38;;;;;;;16.60;6.90;;;;;;;1.79;100.00;100077.58;109282;1253;73958;-90
2023/02/02 15:12:38;;;;;;;12.50;6.70;;;;;;;1.64;100.00;100081.19;109248;1254;69004;-90
2023/02/02 15:15:29;;;;;;;14.40;7.60;;;;;;;1.49;100.00;100085.91;109217;1254;70087;-90
2023/02/02 15:18:25;;;;;;;13.90;6.50;;;;;;;1.35;100.00;100090.95;109278;1254;59641;-90
2023/02/02 15:21:20;;;;;;;19.40;6.60;;;;;;;1.20;100.00;100099.92;109082;1254;60437;-89
2023/02/02 15:24:21;;;;;;;14.30;7.10;;;;;;;1.05;100.00;100100.48;109165;1253;72172;-91
2023/02/02 15:27:15;;;;;;;15.90;8.10;;;;;;;0.95;100.00;100103.66;109191;1254;68549;-92
2023/02/02 15:30:06;;;;;;;19.20;7.40;;;;;;;0.81;100.00;100101.38;109131;1253;71007;-90
2023/02/02 15:32:55;;;;;;;16.60;7.30;;;;;;;0.71;100.00;100103.91;109392;1256;60680;-91
2023/02/02 15:35:44;;;;;;;15.30;7.60;;;;;;;0.54;100.00;100106.85;109338;1254;60622;-89
2023/02/02 15:38:34;;;;;;;25.30;8.80;;;;;;;0.41;100.00;100110.75;109329;1255;73332;-90
2023/02/02 15:41:31;;;;;;;13.40;5.70;;;;;;;0.32;100.00;100114.88;109214;1257;69638;-91
2023/02/02 15:44:26;;;;;;;11.80;6.10;;;;;;;0.23;100.00;100114.75;109260;1259;72457;-90
2023/02/02 15:47:17;;;;;;;10.40;5.40;;;;;;;0.18;100.00;100119.55;109169;1253;60761;-90
2023/02/02 15:50:16;;;;;;;10.00;5.20;;;;;;;0.13;100.00;100120.45;109188;1254;60466;-91
2023/02/02 15:53:05;;;;;;;12.70;6.30;;;;;;;0.04;100.00;100123.58;109101;1254;74096;-91
2023/02/02 15:55:55;;;;;;;11.00;5.30;;;;;;;-0.06;100.00;100125.52;109168;1254;68604;-91
2023/02/02 15:58:48;;;;;;;10.00;5.30;;;;;;;-0.12;100.00;100133.28;109216;1254;73142;-91
2023/02/02 16:01:45;;;;;;;12.00;5.70;;;;;;;-0.20;100.00;100137.17;109378;1251;61232;-90
2023/02/02 16:04:36;;;;;;;14.20;6.00;;;;;;;-0.27;100.00;100140.56;109371;1251;59795;-90
2023/02/02 16:07:32;;;;;;;11.70;5.90;;;;;;;-0.35;100.00;100144.79;109231;1251;75019;-90
2023/02/02 16:10:22;;;;;;;12.70;6.40;;;;;;;-0.43;100.00;100146.27;109413;1251;69496;-91
2023/02/02 16:13:30;;;;;;;13.20;5.50;;;;;;;-0.48;100.00;100150.66;109311;1251;73529;-91
2023/02/02 16:16:25;;;;;;;10.40;5.50;;;;;;;-0.55;100.00;100154.02;109226;1252;59483;-90
2023/02/02 16:19:15;;;;;;;12.30;5.30;;;;;;;-0.57;100.00;100156.79;109378;1251;59966;-90
2023/02/02 16:22:06;;;;;;;14.60;6.20;;;;;;;-0.59;100.00;100158.90;109314;1251;73741;-90
2023/02/02 16:24:57;;;;;;;9.70;5.50;;;;;;;-0.65;100.00;100158.91;109256;1251;69988;-90
2023/02/02 16:27:46;;;;;;;14.80;6.40;;;;;;;-0.65;100.00;100162.73;109213;1251;73933;-90
2023/02/02 16:30:36;;;;;;;11.80;6.10;;;;;;;-0.72;100.00;100162.84;109195;1251;61180;-91
2023/02/02 16:33:37;;;;;;;12.60;6.20;;;;;;;-0.77;100.00;100164.42;109347;1251;60698;-90
2023/02/02 16:36:30;;;;;;;11.90;5.40;;;;;;;-0.68;100.00;100170.10;109237;1251;74810;-90
2023/02/02 16:39:21;;;;;;;21.10;8.20;;;;;;;-0.63;100.00;100173.09;109372;1256;69891;-90
2023/02/02 16:42:21;;;;;;;119.80;32.60;;;;;;;-0.63;100.00;100174.07;109250;1254;70111;-90
2023/02/02 16:45:33;;;;;;;47.20;15.80;;;;;;;-0.59;100.00;100177.60;109286;1251;60905;-91
2023/02/02 16:48:32;;;;;;;18.70;8.60;;;;;;;-0.47;100.00;100178.50;109382;1250;61135;-91
2023/02/02 16:51:24;;;;;;;14.10;7.10;;;;;;;-0.40;100.00;100184.17;109376;1251;73973;-91
2023/02/02 16:54:19;;;;;;;13.30;6.80;;;;;;;-0.34;100.00;100179.06;109316;1251;68978;-91
2023/02/02 16:57:15;;;;;;;15.20;7.40;;;;;;;-0.28;100.00;100181.17;109306;1251;73215;-91
2023/02/02 17:00:05;;;;;;;14.80;6.80;;;;;;;-0.22;100.00;100183.16;109248;1251;59054;-89
2023/02/02 17:03:06;;;;;;;13.00;6.40;;;;;;;-0.24;100.00;100185.16;109187;1251;60050;-90
2023/02/02 17:05:55;;;;;;;16.40;6.70;;;;;;;-0.18;100.00;100185.02;109260;1251;73094;-90
2023/02/02 17:08:44;;;;;;;14.80;7.20;;;;;;;-0.08;100.00;100186.15;109351;1251;66467;-90
2023/02/02 17:11:34;;;;;;;13.80;6.90;;;;;;;-0.01;100.00;100188.59;109380;1251;72874;-92
2023/02/02 17:14:30;;;;;;;12.60;6.30;;;;;;;0.00;100.00;100190.67;109345;1251;59174;-91
2023/02/02 17:17:20;;;;;;;15.70;6.60;;;;;;;-0.01;100.00;100195.82;109412;1251;60362;-90
2023/02/02 17:20:09;;;;;;;13.50;7.40;;;;;;;0.07;100.00;100203.41;109430;1251;74948;-91
2023/02/02 17:23:05;;;;;;;13.10;5.80;;;;;;;0.16;100.00;100206.42;109363;1251;68556;-90
2023/02/02 17:25:54;;;;;;;14.30;7.40;;;;;;;0.19;100.00;100205.23;109325;1251;72692;-90
2023/02/02 17:28:43;;;;;;;15.60;7.10;;;;;;;0.22;100.00;100206.27;109340;1251;58307;-90
2023/02/02 17:31:33;;;;;;;14.80;7.80;;;;;;;0.29;100.00;100207.15;109284;1251;61353;-90
2023/02/02 17:34:24;;;;;;;16.70;7.60;;;;;;;0.32;100.00;100210.85;109202;1251;71747;-91
2023/02/02 17:37:14;;;;;;;15.60;7.10;;;;;;;0.38;100.00;100208.41;109246;1251;70707;-91
2023/02/02 17:40:03;;;;;;;14.70;7.30;;;;;;;0.45;100.00;100213.73;109329;1251;72183;-90
2023/02/02 17:42:52;;;;;;;17.00;8.00;;;;;;;0.54;100.00;100216.89;109313;1251;60531;-90
2023/02/02 17:45:42;;;;;;;16.00;7.60;;;;;;;0.60;100.00;100217.39;109336;1251;61304;-90
2023/02/02 17:48:33;;;;;;;16.80;8.30;;;;;;;0.62;100.00;100215.64;109204;1257;75041;-90
2023/02/02 17:51:24;;;;;;;14.00;6.90;;;;;;;0.67;100.00;100216.00;109247;1254;69470;-89
2023/02/02 17:54:15;;;;;;;13.70;7.70;;;;;;;0.70;100.00;100215.85;109211;1251;73806;-90
2023/02/02 17:57:04;;;;;;;14.70;7.70;;;;;;;0.74;100.00;100211.85;109220;1251;61056;-91
2023/02/02 17:59:54;;;;;;;15.60;7.70;;;;;;;0.75;100.00;100216.02;109223;1251;60577;-90
2023/02/02 18:02:46;;;;;;;17.50;7.80;;;;;;;0.77;100.00;100214.07;109341;1251;72404;-90
2023/02/02 18:05:37;;;;;;;14.70;7.80;;;;;;;0.78;100.00;100216.53;109221;1254;69935;-91
2023/02/02 18:08:33;;;;;;;16.70;8.40;;;;;;;0.77;100.00;100217.77;109362;1251;73958;-91
2023/02/02 18:11:25;;;;;;;17.60;7.70;;;;;;;0.79;100.00;100217.09;109358;1251;60666;-92
2023/02/02 18:14:18;;;;;;;15.60;7.90;;;;;;;0.79;100.00;100219.83;109372;1251;61590;-91
2023/02/02 18:17:13;;;;;;;15.10;7.60;;;;;;;0.78;100.00;100224.18;109387;1251;74620;-90
2023/02/02 18:20:02;;;;;;;15.70;8.10;;;;;;;0.82;100.00;100230.59;109331;1250;70986;-90
2023/02/02 18:22:51;;;;;;;18.20;7.90;;;;;;;0.82;100.00;100234.58;109155;1251;72839;-91
2023/02/02 18:25:40;;;;;;;16.60;8.40;;;;;;;0.84;100.00;100235.87;109303;1251;59021;-90
2023/02/02 18:28:29;;;;;;;17.40;8.30;;;;;;;0.86;100.00;100238.84;109187;1254;59934;-90
2023/02/02 18:31:19;;;;;;;16.00;8.30;;;;;;;0.81;100.00;100239.76;109270;1250;73788;-90
2023/02/02 18:34:09;;;;;;;17.40;8.30;;;;;;;0.89;100.00;100239.44;109351;1250;69950;-90
2023/02/02 18:36:58;;;;;;;16.90;7.80;;;;;;;0.90;100.00;100238.69;109300;1253;72374;-90
2023/02/02 18:39:47;;;;;;;14.90;7.80;;;;;;;0.79;100.00;100235.81;109220;1251;59834;-90
2023/02/02 18:42:39;;;;;;;13.60;7.70;;;;;;;0.79;100.00;100237.50;109399;1251;61430;-89
2023/02/02 18:45:29;;;;;;;19.80;8.40;;;;;;;0.80;100.00;100238.48;109307;1256;73518;-89
2023/02/02 18:48:23;;;;;;;17.50;7.70;;;;;;;0.87;100.00;100235.73;109301;1251;67087;-88
2023/02/02 18:51:16;;;;;;;16.30;8.10;;;;;;;0.80;100.00;100240.88;109113;1256;74416;-89
2023/02/02 18:54:05;;;;;;;17.00;7.90;;;;;;;0.79;100.00;100242.75;109115;1251;61698;-90
2023/02/02 18:56:55;;;;;;;16.50;7.20;;;;;;;0.68;100.00;100239.45;109303;1251;61131;-91
2023/02/02 18:59:46;;;;;;;15.40;7.80;;;;;;;0.76;100.00;100244.38;109218;1251;72154;-90
2023/02/02 19:02:37;;;;;;;14.10;7.10;;;;;;;0.80;100.00;100233.52;109312;1252;69462;-89